X  Close Metar Aviation Weather Data     LYNI Nis Airport
Temperature
22°C Temperature
13°C Dewpoint
57% Humidity



Wind
16 KM/H
10 MPH
4 M/S
9 KTS



320°
NW
Current Conditions

Clear Clear
Pressure 1028.78 (hPa) - 30.38 (inHg)
Visibility 6 (mile) - 9.7 (km)
Airport
Airport-code LYNI

Location: Nis Airport
Distance: 63 (km)

Metar:
LYNI 121030Z 32009KT 260V020 CAVOK 22/13 Q1029 NOSIG

Time: 12-04-2024 12:30 CEST